Time;durP1;ratioP1;P1;durP2;ratioP2;P2;SDS_P1;SDS_P2;PMS_P1;PMS_P2;Temp;Humidity;BMP_temperature;BMP_pressure;BME280_temperature;BME280_humidity;BME280_pressure;Samples;Min_cycle;Max_cycle;Signal;HPM_P1;HPM_P2
2022/10/29 00:00:46;;;;;;;;;;;23.30;45.80;;;;;;474861;251;1258;-53
2022/10/29 00:02:47;;;;;;;;;;;23.30;45.80;;;;;;474633;251;1324;-53
2022/10/29 00:04:49;;;;;;;;;;;23.30;45.80;;;;;;474697;251;1214;-53
2022/10/29 00:06:50;;;;;;;;;;;23.30;45.80;;;;;;474437;251;2205;-52
2022/10/29 00:08:51;;;;;;;;;;;23.30;45.80;;;;;;474950;251;1343;-53
2022/10/29 00:10:53;;;;;;;;;;;23.30;45.90;;;;;;474919;251;1221;-53
2022/10/29 00:12:54;;;;;;;;;;;23.20;45.80;;;;;;474576;251;1257;-53
2022/10/29 00:14:55;;;;;;;;;;;23.20;45.80;;;;;;474655;251;1220;-53
2022/10/29 00:16:57;;;;;;;;;;;23.30;45.90;;;;;;475069;251;1227;-52
2022/10/29 00:18:58;;;;;;;;;;;23.30;45.80;;;;;;474674;251;1211;-53
2022/10/29 00:20:59;;;;;;;;;;;23.30;45.80;;;;;;474825;251;1212;-53
2022/10/29 00:23:01;;;;;;;;;;;23.30;45.80;;;;;;474645;251;1195;-52
2022/10/29 00:25:02;;;;;;;;;;;23.30;45.80;;;;;;474639;251;2166;-52
2022/10/29 00:27:03;;;;;;;;;;;23.30;45.80;;;;;;475003;251;1246;-53
2022/10/29 00:29:05;;;;;;;;;;;23.30;45.90;;;;;;474661;251;1279;-53
2022/10/29 00:31:06;;;;;;;;;;;23.30;45.80;;;;;;475015;251;1275;-53
2022/10/29 00:33:07;;;;;;;;;;;23.30;45.80;;;;;;475052;251;1275;-52
2022/10/29 00:35:08;;;;;;;;;;;23.30;45.90;;;;;;475047;251;1220;-52
2022/10/29 00:37:10;;;;;;;;;;;23.30;45.90;;;;;;474608;251;1251;-53
2022/10/29 00:39:11;;;;;;;;;;;23.20;45.90;;;;;;474648;251;1332;-53
2022/10/29 00:41:12;;;;;;;;;;;23.30;46.00;;;;;;474612;251;1279;-53
2022/10/29 00:43:14;;;;;;;;;;;23.30;45.90;;;;;;475044;251;1230;-53
2022/10/29 00:45:15;;;;;;;;;;;23.30;46.00;;;;;;474613;251;2158;-53
2022/10/29 00:47:17;;;;;;;;;;;23.30;45.90;;;;;;474596;251;1329;-53
2022/10/29 00:49:18;;;;;;;;;;;23.30;45.90;;;;;;475046;251;1361;-53
2022/10/29 00:51:19;;;;;;;;;;;23.30;45.90;;;;;;475010;251;1225;-53
2022/10/29 00:53:21;;;;;;;;;;;23.30;45.90;;;;;;474615;251;1221;-53
2022/10/29 00:55:22;;;;;;;;;;;23.30;45.90;;;;;;474728;251;1683;-53
2022/10/29 00:57:25;;;;;;;;;;;23.30;45.90;;;;;;474700;251;1252;-53
2022/10/29 00:59:25;;;;;;;;;;;23.30;45.90;;;;;;474675;251;2511;-53
2022/10/29 01:01:26;;;;;;;;;;;23.30;46.00;;;;;;474741;251;1182;-53
2022/10/29 01:03:27;;;;;;;;;;;23.30;46.00;;;;;;474791;251;1282;-53
2022/10/29 01:05:28;;;;;;;;;;;23.30;46.00;;;;;;474747;251;2157;-53
2022/10/29 01:07:30;;;;;;;;;;;23.20;46.00;;;;;;474774;251;1340;-54
2022/10/29 01:09:31;;;;;;;;;;;23.30;46.00;;;;;;474937;251;1216;-53
2022/10/29 01:11:32;;;;;;;;;;;23.30;46.00;;;;;;475097;251;1327;-53
2022/10/29 01:13:34;;;;;;;;;;;23.30;46.00;;;;;;474901;251;1300;-53
2022/10/29 01:15:35;;;;;;;;;;;23.30;46.00;;;;;;474660;251;1439;-53
2022/10/29 01:17:36;;;;;;;;;;;23.30;46.00;;;;;;474790;251;1290;-52
2022/10/29 01:19:38;;;;;;;;;;;23.30;46.00;;;;;;474665;251;1678;-53
2022/10/29 01:21:39;;;;;;;;;;;23.30;46.00;;;;;;474807;251;1272;-53
2022/10/29 01:23:40;;;;;;;;;;;23.20;46.00;;;;;;474832;251;1637;-53
2022/10/29 01:25:42;;;;;;;;;;;23.30;46.00;;;;;;474666;251;2162;-53
2022/10/29 01:27:43;;;;;;;;;;;23.30;46.00;;;;;;474677;251;1289;-53
2022/10/29 01:29:44;;;;;;;;;;;23.30;46.00;;;;;;474626;251;1852;-52
2022/10/29 01:31:46;;;;;;;;;;;23.30;46.00;;;;;;474590;251;1301;-52
2022/10/29 01:33:47;;;;;;;;;;;23.30;46.00;;;;;;474650;251;1328;-53
2022/10/29 01:35:48;;;;;;;;;;;23.20;46.00;;;;;;474789;251;1268;-53
2022/10/29 01:37:50;;;;;;;;;;;23.30;46.10;;;;;;474623;251;1212;-52
2022/10/29 01:39:51;;;;;;;;;;;23.30;46.10;;;;;;474908;251;1340;-53
2022/10/29 01:41:52;;;;;;;;;;;23.20;46.10;;;;;;474800;251;1338;-52
2022/10/29 01:43:54;;;;;;;;;;;23.20;46.10;;;;;;474676;251;1177;-53
2022/10/29 01:45:55;;;;;;;;;;;23.20;46.20;;;;;;475043;251;2169;-53
2022/10/29 01:47:57;;;;;;;;;;;23.20;46.20;;;;;;474901;251;1184;-53
2022/10/29 01:49:58;;;;;;;;;;;23.20;46.20;;;;;;474731;251;1283;-53
2022/10/29 01:52:00;;;;;;;;;;;23.20;46.20;;;;;;475067;251;1320;-53
2022/10/29 01:54:01;;;;;;;;;;;23.30;46.20;;;;;;475016;251;2534;-53
2022/10/29 01:56:02;;;;;;;;;;;23.20;46.10;;;;;;474758;251;1294;-53
2022/10/29 01:58:03;;;;;;;;;;;23.20;46.20;;;;;;474980;251;1208;-53
2022/10/29 02:00:05;;;;;;;;;;;23.20;46.20;;;;;;474706;251;1174;-53
2022/10/29 02:02:06;;;;;;;;;;;23.20;46.20;;;;;;475099;251;1241;-53
2022/10/29 02:04:07;;;;;;;;;;;23.20;46.30;;;;;;475056;251;1308;-53
2022/10/29 02:06:09;;;;;;;;;;;23.20;46.30;;;;;;475072;251;2204;-53
2022/10/29 02:08:10;;;;;;;;;;;23.20;46.30;;;;;;474635;251;1291;-53
2022/10/29 02:10:11;;;;;;;;;;;23.20;46.30;;;;;;474888;251;1411;-53
2022/10/29 02:12:13;;;;;;;;;;;23.20;46.40;;;;;;474834;251;1244;-53
2022/10/29 02:14:14;;;;;;;;;;;23.20;46.40;;;;;;475066;251;1303;-53
2022/10/29 02:16:15;;;;;;;;;;;23.20;46.40;;;;;;474667;251;1321;-53
2022/10/29 02:18:17;;;;;;;;;;;23.20;46.30;;;;;;475109;251;1380;-53
2022/10/29 02:20:18;;;;;;;;;;;23.20;46.30;;;;;;474657;251;1405;-53
2022/10/29 02:22:20;;;;;;;;;;;23.20;46.30;;;;;;474665;251;1305;-53
2022/10/29 02:24:21;;;;;;;;;;;23.20;46.30;;;;;;474683;251;1303;-52
2022/10/29 02:26:22;;;;;;;;;;;23.20;46.30;;;;;;474657;251;2178;-52
2022/10/29 02:28:24;;;;;;;;;;;23.20;46.30;;;;;;475100;251;1190;-53
2022/10/29 02:30:25;;;;;;;;;;;23.20;46.40;;;;;;475080;251;1256;-53
2022/10/29 02:32:26;;;;;;;;;;;23.20;46.40;;;;;;475087;251;1267;-53
2022/10/29 02:34:28;;;;;;;;;;;23.20;46.40;;;;;;474685;251;1272;-53
2022/10/29 02:36:29;;;;;;;;;;;23.20;46.40;;;;;;474916;251;1308;-53
2022/10/29 02:38:30;;;;;;;;;;;23.20;46.30;;;;;;474663;251;1157;-53
2022/10/29 02:40:32;;;;;;;;;;;23.20;46.30;;;;;;474940;251;1237;-53
2022/10/29 02:42:33;;;;;;;;;;;23.20;46.30;;;;;;475091;251;1305;-52
2022/10/29 02:44:34;;;;;;;;;;;23.20;46.30;;;;;;474676;251;1247;-53
2022/10/29 02:46:38;;;;;;;;;;;23.20;46.30;;;;;;474638;251;2154;-53
2022/10/29 02:48:37;;;;;;;;;;;23.20;46.30;;;;;;474595;251;2371;-53
2022/10/29 02:50:38;;;;;;;;;;;23.20;46.30;;;;;;474701;251;1301;-53
2022/10/29 02:52:40;;;;;;;;;;;23.20;46.30;;;;;;474754;251;1224;-53
2022/10/29 02:54:41;;;;;;;;;;;23.20;46.20;;;;;;474842;251;1372;-53
2022/10/29 02:56:42;;;;;;;;;;;23.20;46.20;;;;;;474731;251;1263;-53
2022/10/29 02:58:43;;;;;;;;;;;23.20;46.20;;;;;;474859;251;1208;-52
2022/10/29 03:00:45;;;;;;;;;;;23.20;46.20;;;;;;474848;251;1362;-53
2022/10/29 03:02:46;;;;;;;;;;;23.20;46.20;;;;;;474608;251;1356;-53
2022/10/29 03:04:47;;;;;;;;;;;23.20;46.30;;;;;;474619;251;1289;-53
2022/10/29 03:06:49;;;;;;;;;;;23.20;46.30;;;;;;475009;251;2197;-52
2022/10/29 03:08:50;;;;;;;;;;;23.30;46.30;;;;;;474602;251;1269;-53
2022/10/29 03:10:51;;;;;;;;;;;23.30;46.30;;;;;;474629;251;1321;-53
2022/10/29 03:12:53;;;;;;;;;;;23.30;46.20;;;;;;474636;251;1258;-53
2022/10/29 03:14:54;;;;;;;;;;;23.20;46.20;;;;;;475022;251;1311;-53
2022/10/29 03:16:55;;;;;;;;;;;23.30;46.20;;;;;;474902;251;1245;-53
2022/10/29 03:18:57;;;;;;;;;;;23.20;46.20;;;;;;474951;251;1243;-53
2022/10/29 03:20:58;;;;;;;;;;;23.30;46.20;;;;;;474991;251;1367;-53
2022/10/29 03:22:59;;;;;;;;;;;23.30;46.20;;;;;;475013;251;1634;-53
2022/10/29 03:25:01;;;;;;;;;;;23.30;46.20;;;;;;475052;251;1269;-53
2022/10/29 03:27:02;;;;;;;;;;;23.30;46.20;;;;;;474690;251;2205;-52
2022/10/29 03:29:03;;;;;;;;;;;23.30;46.10;;;;;;474652;251;1434;-53
2022/10/29 03:31:05;;;;;;;;;;;23.30;46.10;;;;;;474651;251;1285;-53
2022/10/29 03:33:06;;;;;;;;;;;23.30;46.20;;;;;;475018;251;1269;-53
2022/10/29 03:35:07;;;;;;;;;;;23.30;46.20;;;;;;474688;251;1704;-53
2022/10/29 03:37:09;;;;;;;;;;;23.30;46.20;;;;;;475062;251;1262;-53
2022/10/29 03:39:10;;;;;;;;;;;23.30;46.20;;;;;;474793;251;1407;-53
2022/10/29 03:41:11;;;;;;;;;;;23.30;46.20;;;;;;474975;251;1337;-53
2022/10/29 03:43:13;;;;;;;;;;;23.30;46.20;;;;;;475060;251;1328;-51
2022/10/29 03:45:14;;;;;;;;;;;23.30;46.20;;;;;;474678;251;1196;-53
2022/10/29 03:47:15;;;;;;;;;;;23.30;46.20;;;;;;474627;251;2161;-53
2022/10/29 03:49:16;;;;;;;;;;;23.30;46.30;;;;;;474680;251;1294;-53
2022/10/29 03:51:18;;;;;;;;;;;23.30;46.20;;;;;;474658;251;1229;-53
2022/10/29 03:53:19;;;;;;;;;;;23.30;46.30;;;;;;474804;251;1226;-52
2022/10/29 03:55:20;;;;;;;;;;;23.30;46.30;;;;;;474627;251;1223;-53
2022/10/29 03:57:22;;;;;;;;;;;23.30;46.30;;;;;;474717;251;1286;-53
2022/10/29 03:59:23;;;;;;;;;;;23.30;46.30;;;;;;474603;251;1230;-52
2022/10/29 04:01:24;;;;;;;;;;;23.20;46.30;;;;;;474970;251;1207;-52
2022/10/29 04:03:26;;;;;;;;;;;23.30;46.30;;;;;;474615;251;1220;-53
2022/10/29 04:05:29;;;;;;;;;;;23.30;46.30;;;;;;475080;251;1326;-53
2022/10/29 04:07:30;;;;;;;;;;;23.30;46.30;;;;;;474611;251;2200;-53
2022/10/29 04:09:32;;;;;;;;;;;23.20;46.30;;;;;;475072;251;1208;-53
2022/10/29 04:11:33;;;;;;;;;;;23.30;46.40;;;;;;474448;251;1630;-53
2022/10/29 04:13:35;;;;;;;;;;;23.30;46.40;;;;;;474929;251;1297;-53
2022/10/29 04:15:36;;;;;;;;;;;23.20;46.40;;;;;;475044;251;1281;-53
2022/10/29 04:17:37;;;;;;;;;;;23.20;46.40;;;;;;474524;251;1222;-53
2022/10/29 04:19:39;;;;;;;;;;;23.20;46.40;;;;;;474664;251;1350;-53
2022/10/29 04:21:40;;;;;;;;;;;23.30;46.40;;;;;;474530;251;1625;-53
2022/10/29 04:23:41;;;;;;;;;;;23.30;46.40;;;;;;474676;251;1296;-53
2022/10/29 04:25:43;;;;;;;;;;;23.20;46.40;;;;;;474986;251;1618;-53
2022/10/29 04:27:44;;;;;;;;;;;23.30;46.40;;;;;;474562;251;2201;-53
2022/10/29 04:29:45;;;;;;;;;;;23.20;46.30;;;;;;475118;251;1182;-53
2022/10/29 04:31:47;;;;;;;;;;;23.20;46.40;;;;;;474505;251;1279;-53
2022/10/29 04:33:48;;;;;;;;;;;23.30;46.40;;;;;;474674;251;1246;-53
2022/10/29 04:35:49;;;;;;;;;;;23.30;46.40;;;;;;475115;251;1218;-53
2022/10/29 04:37:51;;;;;;;;;;;23.30;46.40;;;;;;474649;251;1176;-53
2022/10/29 04:39:52;;;;;;;;;;;23.20;46.40;;;;;;474639;251;1235;-53
2022/10/29 04:41:53;;;;;;;;;;;23.20;46.40;;;;;;474868;251;1189;-53
2022/10/29 04:43:55;;;;;;;;;;;23.20;46.50;;;;;;475028;251;1233;-53
2022/10/29 04:45:56;;;;;;;;;;;23.20;46.40;;;;;;475104;251;1249;-53
2022/10/29 04:47:57;;;;;;;;;;;23.20;46.40;;;;;;474963;251;2156;-53
2022/10/29 04:49:58;;;;;;;;;;;23.30;46.50;;;;;;475009;251;1262;-53
2022/10/29 04:52:00;;;;;;;;;;;23.20;46.40;;;;;;474652;251;1249;-53
2022/10/29 04:54:01;;;;;;;;;;;23.30;46.40;;;;;;474753;251;1218;-53
2022/10/29 04:56:04;;;;;;;;;;;23.20;46.40;;;;;;475084;251;1241;-52
2022/10/29 04:58:04;;;;;;;;;;;23.20;46.40;;;;;;474547;251;2222;-53
2022/10/29 05:00:05;;;;;;;;;;;23.20;46.40;;;;;;474836;251;1257;-53
2022/10/29 05:02:06;;;;;;;;;;;23.20;46.50;;;;;;474782;251;1302;-53
2022/10/29 05:04:08;;;;;;;;;;;23.20;46.50;;;;;;474678;251;1312;-53
2022/10/29 05:06:09;;;;;;;;;;;23.20;46.50;;;;;;474795;251;1236;-53
2022/10/29 05:08:10;;;;;;;;;;;23.20;46.50;;;;;;474639;251;2197;-53
2022/10/29 05:10:12;;;;;;;;;;;23.20;46.60;;;;;;474794;251;1208;-53
2022/10/29 05:12:13;;;;;;;;;;;23.20;46.50;;;;;;474682;251;1192;-53
2022/10/29 05:14:14;;;;;;;;;;;23.20;46.60;;;;;;474699;251;1422;-53
2022/10/29 05:16:16;;;;;;;;;;;23.20;46.60;;;;;;474748;251;1222;-53
2022/10/29 05:18:17;;;;;;;;;;;23.20;46.60;;;;;;474710;251;1187;-53
2022/10/29 05:20:18;;;;;;;;;;;23.20;46.50;;;;;;475101;251;1310;-53
2022/10/29 05:22:20;;;;;;;;;;;23.20;46.60;;;;;;474952;251;1351;-53
2022/10/29 05:24:21;;;;;;;;;;;23.20;46.60;;;;;;475090;251;1334;-53
2022/10/29 05:26:22;;;;;;;;;;;23.20;46.50;;;;;;475092;251;1364;-53
2022/10/29 05:28:23;;;;;;;;;;;23.20;46.50;;;;;;474723;251;2197;-53
2022/10/29 05:30:25;;;;;;;;;;;23.20;46.50;;;;;;475026;251;1355;-53
2022/10/29 05:32:26;;;;;;;;;;;23.20;46.50;;;;;;475070;251;1332;-53
2022/10/29 05:34:28;;;;;;;;;;;23.20;46.60;;;;;;475077;251;1250;-52
2022/10/29 05:36:29;;;;;;;;;;;23.20;46.60;;;;;;474654;251;1166;-53
2022/10/29 05:38:30;;;;;;;;;;;23.20;46.60;;;;;;474625;251;1229;-53
2022/10/29 05:40:31;;;;;;;;;;;23.20;46.60;;;;;;474618;251;1352;-53
2022/10/29 05:42:33;;;;;;;;;;;23.20;46.60;;;;;;474816;251;1250;-53
2022/10/29 05:44:34;;;;;;;;;;;23.20;46.60;;;;;;474785;251;1273;-53
2022/10/29 05:46:35;;;;;;;;;;;23.20;46.60;;;;;;474620;251;1239;-53
2022/10/29 05:48:37;;;;;;;;;;;23.20;46.60;;;;;;474668;251;2190;-53
2022/10/29 05:50:38;;;;;;;;;;;23.20;46.70;;;;;;475031;251;1546;-53
2022/10/29 05:52:39;;;;;;;;;;;23.20;46.70;;;;;;474578;251;1216;-53
2022/10/29 05:54:41;;;;;;;;;;;23.20;46.70;;;;;;474623;251;1229;-53
2022/10/29 05:56:42;;;;;;;;;;;23.20;46.60;;;;;;474641;251;1281;-53
2022/10/29 05:58:43;;;;;;;;;;;23.20;46.60;;;;;;474715;251;1433;-52
2022/10/29 06:00:45;;;;;;;;;;;23.20;46.50;;;;;;474911;251;1359;-53
2022/10/29 06:02:46;;;;;;;;;;;23.20;46.50;;;;;;475042;251;1350;-53
2022/10/29 06:04:47;;;;;;;;;;;23.30;46.50;;;;;;475057;251;1364;-53
2022/10/29 06:06:49;;;;;;;;;;;23.30;46.50;;;;;;474627;251;1388;-53
2022/10/29 06:08:50;;;;;;;;;;;23.20;46.50;;;;;;475062;251;2144;-52
2022/10/29 06:10:51;;;;;;;;;;;23.20;46.50;;;;;;474635;251;1241;-52
2022/10/29 06:12:53;;;;;;;;;;;23.20;46.50;;;;;;474950;251;1594;-53
2022/10/29 06:14:54;;;;;;;;;;;23.20;46.50;;;;;;475039;251;1285;-53
2022/10/29 06:16:55;;;;;;;;;;;23.30;46.50;;;;;;475001;251;1321;-53
2022/10/29 06:18:56;;;;;;;;;;;23.30;46.50;;;;;;474961;251;1336;-53
2022/10/29 06:20:58;;;;;;;;;;;23.30;46.60;;;;;;475092;251;1250;-53
2022/10/29 06:23:00;;;;;;;;;;;23.30;46.50;;;;;;474628;251;1506;-53
2022/10/29 06:25:01;;;;;;;;;;;23.30;46.50;;;;;;474659;251;1271;-53
2022/10/29 06:27:03;;;;;;;;;;;23.30;46.50;;;;;;474758;251;1249;-53
2022/10/29 06:29:04;;;;;;;;;;;23.30;46.50;;;;;;474718;251;2165;-52
2022/10/29 06:31:05;;;;;;;;;;;23.30;46.60;;;;;;474904;251;1285;-53
2022/10/29 06:33:06;;;;;;;;;;;23.20;46.50;;;;;;475040;251;1389;-53
2022/10/29 06:35:09;;;;;;;;;;;23.30;46.60;;;;;;474653;251;1319;-53
2022/10/29 06:37:09;;;;;;;;;;;23.30;46.50;;;;;;474688;251;2185;-53
2022/10/29 06:39:10;;;;;;;;;;;23.30;46.60;;;;;;474817;251;1320;-53
2022/10/29 06:41:12;;;;;;;;;;;23.30;46.60;;;;;;474641;251;1306;-53
2022/10/29 06:43:13;;;;;;;;;;;23.30;46.50;;;;;;474959;251;1265;-52
2022/10/29 06:45:14;;;;;;;;;;;23.30;46.60;;;;;;475081;251;1235;-52
2022/10/29 06:47:16;;;;;;;;;;;23.30;46.60;;;;;;475058;251;1195;-53
2022/10/29 06:49:17;;;;;;;;;;;23.30;46.50;;;;;;474628;251;2189;-53
2022/10/29 06:51:18;;;;;;;;;;;23.30;46.50;;;;;;475041;251;1296;-53
2022/10/29 06:53:20;;;;;;;;;;;23.30;46.50;;;;;;474634;251;1227;-53
2022/10/29 06:55:21;;;;;;;;;;;23.30;46.60;;;;;;474665;251;1307;-53
2022/10/29 06:57:23;;;;;;;;;;;23.30;46.50;;;;;;474663;251;1281;-53
2022/10/29 06:59:24;;;;;;;;;;;23.30;46.50;;;;;;474620;251;2332;-53
2022/10/29 07:01:27;;;;;;;;;;;23.30;46.50;;;;;;475084;251;1280;-53
2022/10/29 07:03:27;;;;;;;;;;;23.30;46.50;;;;;;474573;251;2210;-53
2022/10/29 07:05:28;;;;;;;;;;;23.30;46.60;;;;;;474903;251;1217;-53
2022/10/29 07:07:30;;;;;;;;;;;23.30;46.50;;;;;;474909;251;2201;-53
2022/10/29 07:09:31;;;;;;;;;;;23.30;46.50;;;;;;474813;251;1259;-53
2022/10/29 07:11:32;;;;;;;;;;;23.30;46.50;;;;;;474659;251;1380;-53
2022/10/29 07:13:34;;;;;;;;;;;23.30;46.60;;;;;;474929;251;1292;-53
2022/10/29 07:15:35;;;;;;;;;;;23.30;46.60;;;;;;474731;251;1350;-53
2022/10/29 07:17:36;;;;;;;;;;;23.30;46.60;;;;;;474648;251;1386;-53
2022/10/29 07:19:38;;;;;;;;;;;23.30;46.60;;;;;;474914;251;1250;-53
2022/10/29 07:21:39;;;;;;;;;;;23.30;46.70;;;;;;474785;251;1603;-53
2022/10/29 07:23:40;;;;;;;;;;;23.20;46.60;;;;;;475048;251;1275;-53
2022/10/29 07:25:42;;;;;;;;;;;23.30;46.70;;;;;;474943;251;1278;-53
2022/10/29 07:27:43;;;;;;;;;;;23.30;46.60;;;;;;475038;251;2154;-52
2022/10/29 07:29:44;;;;;;;;;;;23.30;46.60;;;;;;474714;251;1221;-53
2022/10/29 07:31:46;;;;;;;;;;;23.30;46.60;;;;;;474650;251;1320;-53
2022/10/29 07:33:47;;;;;;;;;;;23.30;46.60;;;;;;474661;251;1237;-53
2022/10/29 07:35:48;;;;;;;;;;;23.30;46.70;;;;;;474671;251;1191;-53
2022/10/29 07:37:50;;;;;;;;;;;23.30;46.70;;;;;;475024;251;1215;-53
2022/10/29 07:39:51;;;;;;;;;;;23.30;46.60;;;;;;474950;251;1257;-53
2022/10/29 07:41:52;;;;;;;;;;;23.30;46.60;;;;;;474650;251;1322;-53
2022/10/29 07:43:54;;;;;;;;;;;23.30;46.60;;;;;;474630;251;1346;-53
2022/10/29 07:45:55;;;;;;;;;;;23.30;46.60;;;;;;474980;251;1332;-53
2022/10/29 07:47:56;;;;;;;;;;;23.30;46.60;;;;;;474746;251;2157;-53
2022/10/29 07:49:58;;;;;;;;;;;23.30;46.60;;;;;;475075;251;1294;-53
2022/10/29 07:51:59;;;;;;;;;;;23.30;46.60;;;;;;474726;251;1223;-53
2022/10/29 07:54:00;;;;;;;;;;;23.30;46.60;;;;;;474642;251;1163;-52
2022/10/29 07:56:01;;;;;;;;;;;23.30;46.60;;;;;;474891;251;1349;-53
2022/10/29 07:58:03;;;;;;;;;;;23.30;46.60;;;;;;474623;251;1280;-53
2022/10/29 08:00:04;;;;;;;;;;;23.30;46.60;;;;;;474711;251;1298;-53
2022/10/29 08:02:05;;;;;;;;;;;23.30;46.60;;;;;;475093;251;1236;-53
2022/10/29 08:04:07;;;;;;;;;;;23.30;46.60;;;;;;475118;251;1400;-53
2022/10/29 08:06:08;;;;;;;;;;;23.30;46.60;;;;;;475104;251;1252;-53
2022/10/29 08:08:09;;;;;;;;;;;23.30;46.70;;;;;;474726;251;2197;-53
2022/10/29 08:10:11;;;;;;;;;;;23.30;46.60;;;;;;475075;251;1198;-53
2022/10/29 08:12:12;;;;;;;;;;;23.30;46.60;;;;;;474690;251;1402;-53
2022/10/29 08:14:13;;;;;;;;;;;23.30;46.70;;;;;;474977;251;1271;-52
2022/10/29 08:16:15;;;;;;;;;;;23.30;46.60;;;;;;474690;251;1472;-53
2022/10/29 08:18:16;;;;;;;;;;;23.30;46.70;;;;;;474865;251;1296;-53
2022/10/29 08:20:18;;;;;;;;;;;23.30;46.70;;;;;;475083;251;1250;-53
2022/10/29 08:22:19;;;;;;;;;;;23.30;46.70;;;;;;474614;251;1373;-53
2022/10/29 08:24:21;;;;;;;;;;;23.30;46.70;;;;;;474936;251;1422;-52
2022/10/29 08:26:22;;;;;;;;;;;23.30;46.60;;;;;;474647;251;1237;-52
2022/10/29 08:28:23;;;;;;;;;;;23.30;46.70;;;;;;474736;251;2169;-52
2022/10/29 08:30:25;;;;;;;;;;;23.30;46.70;;;;;;474738;251;1237;-53
2022/10/29 08:32:26;;;;;;;;;;;23.30;46.70;;;;;;475069;251;1264;-53
2022/10/29 08:34:27;;;;;;;;;;;23.30;46.70;;;;;;474967;251;1336;-53
2022/10/29 08:36:29;;;;;;;;;;;23.30;46.70;;;;;;474965;251;1334;-53
2022/10/29 08:38:30;;;;;;;;;;;23.30;46.60;;;;;;474998;251;1232;-53
2022/10/29 08:40:31;;;;;;;;;;;23.30;46.60;;;;;;474804;251;1242;-53
2022/10/29 08:42:33;;;;;;;;;;;23.30;46.60;;;;;;475107;251;1230;-52
2022/10/29 08:44:34;;;;;;;;;;;23.30;46.60;;;;;;474971;251;1211;-53
2022/10/29 08:46:35;;;;;;;;;;;23.30;46.50;;;;;;474667;251;1201;-53
2022/10/29 08:48:36;;;;;;;;;;;23.40;46.50;;;;;;474944;251;2181;-53
2022/10/29 08:50:40;;;;;;;;;;;23.30;46.50;;;;;;474892;251;1224;-53
2022/10/29 08:52:39;;;;;;;;;;;23.30;46.60;;;;;;474557;251;2180;-53
2022/10/29 08:54:40;;;;;;;;;;;23.30;46.60;;;;;;474716;251;1244;-53
2022/10/29 08:56:42;;;;;;;;;;;23.30;46.50;;;;;;475076;251;2070;-53
2022/10/29 08:58:43;;;;;;;;;;;23.30;46.50;;;;;;474947;251;1165;-53
2022/10/29 09:00:44;;;;;;;;;;;23.30;46.60;;;;;;474769;251;1310;-53
2022/10/29 09:02:46;;;;;;;;;;;23.30;46.60;;;;;;474799;251;1343;-53
2022/10/29 09:04:47;;;;;;;;;;;23.30;46.60;;;;;;475077;251;1292;-53
2022/10/29 09:06:48;;;;;;;;;;;23.30;46.60;;;;;;474676;251;1272;-53
2022/10/29 09:08:51;;;;;;;;;;;23.40;46.60;;;;;;474791;251;2216;-53
2022/10/29 09:10:51;;;;;;;;;;;23.40;46.50;;;;;;474945;251;2187;-54
2022/10/29 09:12:52;;;;;;;;;;;23.30;46.60;;;;;;474699;251;1302;-53
2022/10/29 09:14:54;;;;;;;;;;;23.30;46.60;;;;;;474931;251;1322;-53
2022/10/29 09:16:55;;;;;;;;;;;23.40;46.50;;;;;;475067;251;1320;-53
2022/10/29 09:18:56;;;;;;;;;;;23.40;46.70;;;;;;474597;251;1275;-53
2022/10/29 09:20:58;;;;;;;;;;;23.40;46.60;;;;;;474733;251;1471;-53
2022/10/29 09:22:59;;;;;;;;;;;23.40;46.50;;;;;;474589;251;1464;-53
2022/10/29 09:25:00;;;;;;;;;;;23.40;46.60;;;;;;474866;251;1187;-52
2022/10/29 09:27:02;;;;;;;;;;;23.40;46.60;;;;;;475045;251;1228;-53
2022/10/29 09:29:03;;;;;;;;;;;23.40;46.50;;;;;;474600;251;2165;-53
2022/10/29 09:31:04;;;;;;;;;;;23.40;46.50;;;;;;474632;251;1210;-53
2022/10/29 09:33:06;;;;;;;;;;;23.40;46.50;;;;;;474775;251;1181;-53
2022/10/29 09:35:10;;;;;;;;;;;23.40;46.60;;;;;;474786;251;1215;-52
2022/10/29 09:37:08;;;;;;;;;;;23.40;46.70;;;;;;474637;251;2248;-53
2022/10/29 09:39:10;;;;;;;;;;;23.40;46.60;;;;;;474680;251;1303;-53
2022/10/29 09:41:11;;;;;;;;;;;23.30;46.60;;;;;;475055;251;1409;-53
2022/10/29 09:43:12;;;;;;;;;;;23.40;46.70;;;;;;475057;251;1352;-53
2022/10/29 09:45:14;;;;;;;;;;;23.30;46.60;;;;;;474842;251;1226;-53
2022/10/29 09:47:15;;;;;;;;;;;23.40;46.60;;;;;;474615;251;1329;-53
2022/10/29 09:49:17;;;;;;;;;;;23.40;46.60;;;;;;474871;251;2161;-52
2022/10/29 09:51:18;;;;;;;;;;;23.40;46.60;;;;;;474767;251;1222;-52
2022/10/29 09:53:19;;;;;;;;;;;23.40;46.60;;;;;;474648;251;1331;-52
2022/10/29 09:55:20;;;;;;;;;;;23.40;46.60;;;;;;474750;251;1292;-53
2022/10/29 09:57:22;;;;;;;;;;;23.40;46.50;;;;;;474881;251;1237;-53
2022/10/29 09:59:23;;;;;;;;;;;23.40;46.50;;;;;;474630;251;1347;-52
2022/10/29 10:01:24;;;;;;;;;;;23.40;46.50;;;;;;474658;251;1377;-53
2022/10/29 10:03:26;;;;;;;;;;;23.40;46.50;;;;;;475051;251;1435;-53
2022/10/29 10:05:27;;;;;;;;;;;23.40;46.50;;;;;;475088;251;1274;-53
2022/10/29 10:07:28;;;;;;;;;;;23.40;46.50;;;;;;475059;251;1322;-52
2022/10/29 10:09:30;;;;;;;;;;;23.40;46.50;;;;;;475065;251;2201;-53
2022/10/29 10:11:31;;;;;;;;;;;23.40;46.50;;;;;;475063;251;1226;-53
2022/10/29 10:13:32;;;;;;;;;;;23.40;46.50;;;;;;475059;251;1216;-53
2022/10/29 10:15:34;;;;;;;;;;;23.40;46.50;;;;;;474691;251;1270;-53
2022/10/29 10:17:35;;;;;;;;;;;23.40;46.60;;;;;;474723;251;1307;-53
2022/10/29 10:19:37;;;;;;;;;;;23.40;46.60;;;;;;474903;251;1803;-53
2022/10/29 10:21:38;;;;;;;;;;;23.40;46.60;;;;;;475033;251;1332;-52
2022/10/29 10:23:39;;;;;;;;;;;23.40;46.60;;;;;;474835;251;1317;-53
2022/10/29 10:25:41;;;;;;;;;;;23.40;46.60;;;;;;475063;251;1232;-53
2022/10/29 10:27:42;;;;;;;;;;;23.40;46.70;;;;;;474824;251;1332;-53
2022/10/29 10:29:43;;;;;;;;;;;23.40;46.70;;;;;;474623;251;2165;-53
2022/10/29 10:31:45;;;;;;;;;;;23.40;46.60;;;;;;474721;251;1284;-53
2022/10/29 10:33:46;;;;;;;;;;;23.40;46.60;;;;;;474796;251;1278;-53
2022/10/29 10:35:47;;;;;;;;;;;23.40;46.50;;;;;;474938;250;1326;-53
2022/10/29 10:37:49;;;;;;;;;;;23.40;46.60;;;;;;474639;251;1176;-53
2022/10/29 10:39:51;;;;;;;;;;;23.40;46.50;;;;;;475080;251;1290;-53
2022/10/29 10:41:51;;;;;;;;;;;23.40;46.50;;;;;;474889;251;2305;-53
2022/10/29 10:43:53;;;;;;;;;;;23.40;46.50;;;;;;474756;251;1334;-53
2022/10/29 10:45:54;;;;;;;;;;;23.40;46.50;;;;;;474968;251;1319;-53
2022/10/29 10:47:57;;;;;;;;;;;23.40;46.50;;;;;;474665;251;1338;-53
2022/10/29 10:49:57;;;;;;;;;;;23.40;46.50;;;;;;474815;251;2254;-53
2022/10/29 10:51:58;;;;;;;;;;;23.40;46.50;;;;;;475086;251;1230;-53
2022/10/29 10:53:59;;;;;;;;;;;23.40;46.50;;;;;;474696;251;1329;-53
2022/10/29 10:56:01;;;;;;;;;;;23.40;46.60;;;;;;475063;251;1228;-53
2022/10/29 10:58:02;;;;;;;;;;;23.40;46.50;;;;;;474744;251;1207;-53
2022/10/29 11:00:03;;;;;;;;;;;23.40;46.50;;;;;;475138;251;1127;-53
2022/10/29 11:02:05;;;;;;;;;;;23.40;46.50;;;;;;474786;251;1387;-53
2022/10/29 11:04:06;;;;;;;;;;;23.40;46.50;;;;;;475137;251;1230;-54
2022/10/29 11:06:07;;;;;;;;;;;23.40;46.50;;;;;;475128;251;1182;-53
2022/10/29 11:08:09;;;;;;;;;;;23.40;46.50;;;;;;475076;251;1269;-53
2022/10/29 11:10:10;;;;;;;;;;;23.40;46.50;;;;;;474763;251;2146;-53
2022/10/29 11:12:12;;;;;;;;;;;23.50;46.50;;;;;;474849;251;1161;-53
2022/10/29 11:14:13;;;;;;;;;;;23.50;46.50;;;;;;475046;251;1248;-53
2022/10/29 11:16:14;;;;;;;;;;;23.50;46.40;;;;;;474760;251;1279;-53
2022/10/29 11:18:16;;;;;;;;;;;23.50;46.40;;;;;;474873;251;1250;-53
2022/10/29 11:20:17;;;;;;;;;;;23.50;46.40;;;;;;474755;251;1698;-53
2022/10/29 11:22:18;;;;;;;;;;;23.50;46.40;;;;;;474906;251;1271;-53
2022/10/29 11:24:20;;;;;;;;;;;23.50;46.40;;;;;;474832;251;1319;-53
2022/10/29 11:26:21;;;;;;;;;;;23.50;46.50;;;;;;474795;251;1296;-53
2022/10/29 11:28:22;;;;;;;;;;;23.50;46.50;;;;;;475116;251;1304;-53
2022/10/29 11:30:24;;;;;;;;;;;23.50;46.50;;;;;;474861;251;2166;-53
2022/10/29 11:32:25;;;;;;;;;;;23.50;46.50;;;;;;474768;251;1240;-53
2022/10/29 11:34:26;;;;;;;;;;;23.50;46.50;;;;;;475125;251;1373;-53
2022/10/29 11:36:28;;;;;;;;;;;23.50;46.50;;;;;;475114;251;1270;-53
2022/10/29 11:38:29;;;;;;;;;;;23.40;46.50;;;;;;474819;251;1235;-53
2022/10/29 11:40:30;;;;;;;;;;;23.50;46.60;;;;;;475073;251;1257;-52
2022/10/29 11:42:31;;;;;;;;;;;23.40;46.50;;;;;;474910;251;1228;-53
2022/10/29 11:44:33;;;;;;;;;;;23.50;46.50;;;;;;475089;251;1210;-53
2022/10/29 11:46:34;;;;;;;;;;;23.40;46.50;;;;;;474658;251;1229;-53
2022/10/29 11:48:35;;;;;;;;;;;23.50;46.50;;;;;;475099;251;1312;-53
2022/10/29 11:50:37;;;;;;;;;;;23.50;46.50;;;;;;474670;251;2154;-53
2022/10/29 11:52:38;;;;;;;;;;;23.40;46.50;;;;;;475093;251;1238;-53
2022/10/29 11:54:39;;;;;;;;;;;23.50;46.60;;;;;;475077;251;1269;-53
2022/10/29 11:56:41;;;;;;;;;;;23.50;46.60;;;;;;474669;251;1283;-53